sensor_id;sensor_type;location;lat;lon;timestamp;P1;durP1;ratioP1;P2;durP2;ratioP2
57395;SDS011;43222;52.912;6.940;2023-04-03T00:01:32;5.28;;;1.25;;
57395;SDS011;43222;52.912;6.940;2023-04-03T00:03:58;4.55;;;1.40;;
57395;SDS011;43222;52.912;6.940;2023-04-03T00:06:25;3.53;;;1.15;;
57395;SDS011;43222;52.912;6.940;2023-04-03T00:08:51;5.28;;;1.30;;
57395;SDS011;43222;52.912;6.940;2023-04-03T00:11:18;4.55;;;1.52;;
57395;SDS011;43222;52.912;6.940;2023-04-03T00:13:45;4.00;;;1.40;;
57395;SDS011;43222;52.912;6.940;2023-04-03T00:16:12;5.82;;;1.50;;
57395;SDS011;43222;52.912;6.940;2023-04-03T00:18:39;5.93;;;1.50;;
57395;SDS011;43222;52.912;6.940;2023-04-03T00:21:06;6.10;;;1.58;;
57395;SDS011;43222;52.912;6.940;2023-04-03T00:23:32;8.77;;;2.63;;
57395;SDS011;43222;52.912;6.940;2023-04-03T00:25:59;6.68;;;1.40;;
57395;SDS011;43222;52.912;6.940;2023-04-03T00:28:25;6.43;;;1.40;;
57395;SDS011;43222;52.912;6.940;2023-04-03T00:30:51;4.15;;;1.23;;
57395;SDS011;43222;52.912;6.940;2023-04-03T00:33:18;7.15;;;1.70;;
57395;SDS011;43222;52.912;6.940;2023-04-03T00:35:46;4.55;;;1.45;;
57395;SDS011;43222;52.912;6.940;2023-04-03T00:38:13;5.32;;;1.20;;
57395;SDS011;43222;52.912;6.940;2023-04-03T00:40:41;6.43;;;1.80;;
57395;SDS011;43222;52.912;6.940;2023-04-03T00:43:15;6.03;;;1.70;;
57395;SDS011;43222;52.912;6.940;2023-04-03T00:45:42;4.90;;;1.58;;
57395;SDS011;43222;52.912;6.940;2023-04-03T00:48:20;4.00;;;1.20;;
57395;SDS011;43222;52.912;6.940;2023-04-03T00:50:46;5.50;;;1.70;;
57395;SDS011;43222;52.912;6.940;2023-04-03T00:53:14;6.43;;;1.70;;
57395;SDS011;43222;52.912;6.940;2023-04-03T00:55:42;5.15;;;1.42;;
57395;SDS011;43222;52.912;6.940;2023-04-03T00:58:08;5.60;;;1.38;;
57395;SDS011;43222;52.912;6.940;2023-04-03T01:00:36;5.68;;;1.40;;
57395;SDS011;43222;52.912;6.940;2023-04-03T01:03:03;7.10;;;1.55;;
57395;SDS011;43222;52.912;6.940;2023-04-03T01:05:29;4.82;;;1.42;;
57395;SDS011;43222;52.912;6.940;2023-04-03T01:07:55;7.18;;;1.50;;
57395;SDS011;43222;52.912;6.940;2023-04-03T01:10:22;5.95;;;1.60;;
57395;SDS011;43222;52.912;6.940;2023-04-03T01:12:50;5.30;;;1.27;;
57395;SDS011;43222;52.912;6.940;2023-04-03T01:15:18;5.20;;;1.38;;
57395;SDS011;43222;52.912;6.940;2023-04-03T01:17:48;5.65;;;1.40;;
57395;SDS011;43222;52.912;6.940;2023-04-03T01:25:30;5.03;;;1.50;;
57395;SDS011;43222;52.912;6.940;2023-04-03T01:27:57;5.80;;;1.50;;
57395;SDS011;43222;52.912;6.940;2023-04-03T01:30:24;6.53;;;1.40;;
57395;SDS011;43222;52.912;6.940;2023-04-03T01:32:51;5.38;;;1.50;;
57395;SDS011;43222;52.912;6.940;2023-04-03T01:35:17;6.30;;;1.75;;
57395;SDS011;43222;52.912;6.940;2023-04-03T01:37:43;7.75;;;1.60;;
57395;SDS011;43222;52.912;6.940;2023-04-03T01:40:09;6.82;;;1.48;;
57395;SDS011;43222;52.912;6.940;2023-04-03T01:42:36;7.57;;;2.00;;
57395;SDS011;43222;52.912;6.940;2023-04-03T01:45:02;7.13;;;1.40;;
57395;SDS011;43222;52.912;6.940;2023-04-03T01:47:28;6.88;;;1.60;;
57395;SDS011;43222;52.912;6.940;2023-04-03T01:49:54;5.65;;;1.65;;
57395;SDS011;43222;52.912;6.940;2023-04-03T01:52:20;6.55;;;1.65;;
57395;SDS011;43222;52.912;6.940;2023-04-03T01:54:46;5.30;;;1.65;;
57395;SDS011;43222;52.912;6.940;2023-04-03T01:57:12;5.72;;;1.50;;
57395;SDS011;43222;52.912;6.940;2023-04-03T01:59:40;5.22;;;1.73;;
57395;SDS011;43222;52.912;6.940;2023-04-03T02:02:06;7.35;;;1.52;;
57395;SDS011;43222;52.912;6.940;2023-04-03T02:04:32;7.30;;;2.00;;
57395;SDS011;43222;52.912;6.940;2023-04-03T02:06:58;5.10;;;1.58;;
57395;SDS011;43222;52.912;6.940;2023-04-03T02:09:24;7.53;;;1.80;;
57395;SDS011;43222;52.912;6.940;2023-04-03T02:11:52;7.70;;;1.88;;
57395;SDS011;43222;52.912;6.940;2023-04-03T02:14:18;6.85;;;1.80;;
57395;SDS011;43222;52.912;6.940;2023-04-03T02:16:45;7.97;;;1.77;;
57395;SDS011;43222;52.912;6.940;2023-04-03T02:19:11;6.75;;;1.60;;
57395;SDS011;43222;52.912;6.940;2023-04-03T02:21:37;5.68;;;1.60;;
57395;SDS011;43222;52.912;6.940;2023-04-03T02:24:03;6.10;;;2.00;;
57395;SDS011;43222;52.912;6.940;2023-04-03T02:26:30;7.75;;;2.17;;
57395;SDS011;43222;52.912;6.940;2023-04-03T02:28:56;6.60;;;1.70;;
57395;SDS011;43222;52.912;6.940;2023-04-03T02:31:22;6.95;;;2.08;;
57395;SDS011;43222;52.912;6.940;2023-04-03T02:33:49;7.75;;;2.13;;
57395;SDS011;43222;52.912;6.940;2023-04-03T02:36:15;9.80;;;2.17;;
57395;SDS011;43222;52.912;6.940;2023-04-03T02:38:41;7.50;;;2.05;;
57395;SDS011;43222;52.912;6.940;2023-04-03T02:41:09;12.20;;;1.90;;
57395;SDS011;43222;52.912;6.940;2023-04-03T02:43:35;7.82;;;1.85;;
57395;SDS011;43222;52.912;6.940;2023-04-03T02:46:02;9.80;;;2.38;;
57395;SDS011;43222;52.912;6.940;2023-04-03T02:48:28;9.80;;;2.28;;
57395;SDS011;43222;52.912;6.940;2023-04-03T02:50:54;8.15;;;2.28;;
57395;SDS011;43222;52.912;6.940;2023-04-03T02:53:20;5.50;;;1.92;;
57395;SDS011;43222;52.912;6.940;2023-04-03T02:55:47;6.88;;;1.92;;
57395;SDS011;43222;52.912;6.940;2023-04-03T02:58:13;5.43;;;1.63;;
57395;SDS011;43222;52.912;6.940;2023-04-03T03:00:39;5.15;;;1.60;;
57395;SDS011;43222;52.912;6.940;2023-04-03T03:03:05;7.65;;;2.30;;
57395;SDS011;43222;52.912;6.940;2023-04-03T03:05:31;7.72;;;2.40;;
57395;SDS011;43222;52.912;6.940;2023-04-03T03:07:58;9.07;;;2.40;;
57395;SDS011;43222;52.912;6.940;2023-04-03T03:10:24;6.90;;;2.03;;
57395;SDS011;43222;52.912;6.940;2023-04-03T03:12:50;5.80;;;2.30;;
57395;SDS011;43222;52.912;6.940;2023-04-03T03:15:17;7.28;;;2.67;;
57395;SDS011;43222;52.912;6.940;2023-04-03T03:17:44;8.80;;;2.58;;
57395;SDS011;43222;52.912;6.940;2023-04-03T03:20:10;10.80;;;2.80;;
57395;SDS011;43222;52.912;6.940;2023-04-03T03:22:37;8.68;;;2.80;;
57395;SDS011;43222;52.912;6.940;2023-04-03T03:25:03;8.68;;;2.72;;
57395;SDS011;43222;52.912;6.940;2023-04-03T03:27:30;6.90;;;2.40;;
57395;SDS011;43222;52.912;6.940;2023-04-03T03:29:56;7.68;;;2.30;;
57395;SDS011;43222;52.912;6.940;2023-04-03T03:32:22;6.22;;;2.33;;
57395;SDS011;43222;52.912;6.940;2023-04-03T03:34:48;13.02;;;3.28;;
57395;SDS011;43222;52.912;6.940;2023-04-03T03:37:14;8.88;;;2.47;;
57395;SDS011;43222;52.912;6.940;2023-04-03T03:39:40;12.00;;;2.50;;
57395;SDS011;43222;52.912;6.940;2023-04-03T03:42:07;9.68;;;3.08;;
57395;SDS011;43222;52.912;6.940;2023-04-03T03:44:33;10.73;;;2.25;;
57395;SDS011;43222;52.912;6.940;2023-04-03T03:46:59;10.07;;;2.63;;
57395;SDS011;43222;52.912;6.940;2023-04-03T03:49:25;8.88;;;2.58;;
57395;SDS011;43222;52.912;6.940;2023-04-03T03:51:51;6.53;;;2.33;;
57395;SDS011;43222;52.912;6.940;2023-04-03T03:54:17;13.45;;;2.42;;
57395;SDS011;43222;52.912;6.940;2023-04-03T03:56:44;9.45;;;2.83;;
57395;SDS011;43222;52.912;6.940;2023-04-03T03:59:11;8.95;;;2.40;;
57395;SDS011;43222;52.912;6.940;2023-04-03T04:01:37;7.80;;;2.50;;
57395;SDS011;43222;52.912;6.940;2023-04-03T04:04:04;10.65;;;2.88;;
57395;SDS011;43222;52.912;6.940;2023-04-03T04:06:30;5.38;;;2.20;;
57395;SDS011;43222;52.912;6.940;2023-04-03T04:08:56;7.40;;;2.30;;
57395;SDS011;43222;52.912;6.940;2023-04-03T04:11:22;8.73;;;2.53;;
57395;SDS011;43222;52.912;6.940;2023-04-03T04:13:48;9.15;;;2.53;;
57395;SDS011;43222;52.912;6.940;2023-04-03T04:16:14;7.13;;;2.60;;
57395;SDS011;43222;52.912;6.940;2023-04-03T04:18:40;9.07;;;2.67;;
57395;SDS011;43222;52.912;6.940;2023-04-03T04:21:07;7.65;;;2.50;;
57395;SDS011;43222;52.912;6.940;2023-04-03T04:23:33;8.55;;;2.78;;
57395;SDS011;43222;52.912;6.940;2023-04-03T04:25:59;10.60;;;2.80;;
57395;SDS011;43222;52.912;6.940;2023-04-03T04:28:25;8.20;;;3.10;;
57395;SDS011;43222;52.912;6.940;2023-04-03T04:30:51;10.02;;;2.60;;
57395;SDS011;43222;52.912;6.940;2023-04-03T04:33:17;8.75;;;2.70;;
57395;SDS011;43222;52.912;6.940;2023-04-03T04:35:43;7.82;;;2.97;;
57395;SDS011;43222;52.912;6.940;2023-04-03T04:38:09;8.85;;;2.78;;
57395;SDS011;43222;52.912;6.940;2023-04-03T04:40:35;6.90;;;2.72;;
57395;SDS011;43222;52.912;6.940;2023-04-03T04:43:02;7.75;;;3.00;;
57395;SDS011;43222;52.912;6.940;2023-04-03T04:45:28;9.30;;;3.00;;
57395;SDS011;43222;52.912;6.940;2023-04-03T04:47:55;8.75;;;3.13;;
57395;SDS011;43222;52.912;6.940;2023-04-03T04:50:22;9.48;;;3.20;;
57395;SDS011;43222;52.912;6.940;2023-04-03T04:52:48;9.30;;;3.60;;
57395;SDS011;43222;52.912;6.940;2023-04-03T04:55:14;9.15;;;4.03;;
57395;SDS011;43222;52.912;6.940;2023-04-03T04:57:40;15.27;;;3.75;;
57395;SDS011;43222;52.912;6.940;2023-04-03T05:00:09;10.93;;;4.18;;
57395;SDS011;43222;52.912;6.940;2023-04-03T05:02:35;7.72;;;3.50;;
57395;SDS011;43222;52.912;6.940;2023-04-03T05:05:01;11.07;;;3.75;;
57395;SDS011;43222;52.912;6.940;2023-04-03T05:07:28;11.88;;;4.18;;
57395;SDS011;43222;52.912;6.940;2023-04-03T05:09:54;7.88;;;3.80;;
57395;SDS011;43222;52.912;6.940;2023-04-03T05:12:20;8.02;;;3.28;;
57395;SDS011;43222;52.912;6.940;2023-04-03T05:14:47;13.02;;;3.58;;
57395;SDS011;43222;52.912;6.940;2023-04-03T05:17:13;9.63;;;3.65;;
57395;SDS011;43222;52.912;6.940;2023-04-03T05:19:39;9.68;;;3.75;;
57395;SDS011;43222;52.912;6.940;2023-04-03T05:22:05;12.68;;;3.85;;
57395;SDS011;43222;52.912;6.940;2023-04-03T05:24:31;12.50;;;3.85;;
57395;SDS011;43222;52.912;6.940;2023-04-03T05:26:58;10.23;;;3.90;;
57395;SDS011;43222;52.912;6.940;2023-04-03T05:29:24;11.43;;;3.75;;
57395;SDS011;43222;52.912;6.940;2023-04-03T05:31:50;9.82;;;3.88;;
57395;SDS011;43222;52.912;6.940;2023-04-03T05:34:16;9.18;;;3.50;;
57395;SDS011;43222;52.912;6.940;2023-04-03T05:36:42;9.77;;;3.85;;
57395;SDS011;43222;52.912;6.940;2023-04-03T05:39:08;10.07;;;3.80;;
57395;SDS011;43222;52.912;6.940;2023-04-03T05:41:35;9.48;;;3.97;;
57395;SDS011;43222;52.912;6.940;2023-04-03T05:44:01;8.75;;;3.30;;
57395;SDS011;43222;52.912;6.940;2023-04-03T05:46:28;11.60;;;4.03;;
57395;SDS011;43222;52.912;6.940;2023-04-03T05:48:54;11.32;;;3.70;;
57395;SDS011;43222;52.912;6.940;2023-04-03T05:51:24;9.13;;;4.00;;
57395;SDS011;43222;52.912;6.940;2023-04-03T05:54:13;9.60;;;3.53;;
57395;SDS011;43222;52.912;6.940;2023-04-03T05:56:37;10.48;;;3.83;;
57395;SDS011;43222;52.912;6.940;2023-04-03T05:59:03;9.85;;;3.63;;
57395;SDS011;43222;52.912;6.940;2023-04-03T06:01:29;8.63;;;3.47;;
57395;SDS011;43222;52.912;6.940;2023-04-03T06:03:55;9.35;;;3.63;;
57395;SDS011;43222;52.912;6.940;2023-04-03T06:06:23;10.23;;;4.18;;
57395;SDS011;43222;52.912;6.940;2023-04-03T06:08:50;10.00;;;3.58;;
57395;SDS011;43222;52.912;6.940;2023-04-03T06:11:16;9.85;;;4.00;;
57395;SDS011;43222;52.912;6.940;2023-04-03T06:13:42;9.82;;;3.58;;
57395;SDS011;43222;52.912;6.940;2023-04-03T06:16:10;9.75;;;4.20;;
57395;SDS011;43222;52.912;6.940;2023-04-03T06:18:41;8.93;;;3.40;;
57395;SDS011;43222;52.912;6.940;2023-04-03T06:21:07;10.20;;;3.20;;
57395;SDS011;43222;52.912;6.940;2023-04-03T06:23:33;7.82;;;3.25;;
57395;SDS011;43222;52.912;6.940;2023-04-03T06:25:59;9.13;;;3.40;;
57395;SDS011;43222;52.912;6.940;2023-04-03T06:28:25;7.45;;;2.55;;
57395;SDS011;43222;52.912;6.940;2023-04-03T06:30:52;8.05;;;3.50;;
57395;SDS011;43222;52.912;6.940;2023-04-03T06:33:17;7.80;;;2.78;;
57395;SDS011;43222;52.912;6.940;2023-04-03T06:35:43;6.88;;;2.80;;
57395;SDS011;43222;52.912;6.940;2023-04-03T06:38:10;9.40;;;2.85;;
57395;SDS011;43222;52.912;6.940;2023-04-03T06:40:36;8.80;;;2.67;;
57395;SDS011;43222;52.912;6.940;2023-04-03T06:43:03;8.63;;;2.70;;
57395;SDS011;43222;52.912;6.940;2023-04-03T06:45:30;9.45;;;2.95;;
57395;SDS011;43222;52.912;6.940;2023-04-03T06:47:56;7.57;;;2.83;;
57395;SDS011;43222;52.912;6.940;2023-04-03T06:50:22;8.40;;;2.88;;
57395;SDS011;43222;52.912;6.940;2023-04-03T06:52:48;7.50;;;2.42;;
57395;SDS011;43222;52.912;6.940;2023-04-03T06:55:14;9.68;;;2.50;;
57395;SDS011;43222;52.912;6.940;2023-04-03T06:57:40;10.60;;;2.63;;
57395;SDS011;43222;52.912;6.940;2023-04-03T07:00:07;8.95;;;2.60;;
57395;SDS011;43222;52.912;6.940;2023-04-03T07:02:34;9.95;;;2.20;;
57395;SDS011;43222;52.912;6.940;2023-04-03T07:05:01;9.15;;;2.42;;
57395;SDS011;43222;52.912;6.940;2023-04-03T07:07:27;7.68;;;2.33;;
57395;SDS011;43222;52.912;6.940;2023-04-03T07:09:53;9.07;;;2.78;;
57395;SDS011;43222;52.912;6.940;2023-04-03T07:12:19;9.00;;;2.70;;
57395;SDS011;43222;52.912;6.940;2023-04-03T07:14:45;8.93;;;2.42;;
57395;SDS011;43222;52.912;6.940;2023-04-03T07:17:11;11.18;;;2.58;;
57395;SDS011;43222;52.912;6.940;2023-04-03T07:19:38;9.77;;;2.50;;
57395;SDS011;43222;52.912;6.940;2023-04-03T07:22:04;8.57;;;2.70;;
57395;SDS011;43222;52.912;6.940;2023-04-03T07:24:30;8.60;;;2.75;;
57395;SDS011;43222;52.912;6.940;2023-04-03T07:26:56;7.57;;;2.20;;
57395;SDS011;43222;52.912;6.940;2023-04-03T07:29:22;10.15;;;2.90;;
57395;SDS011;43222;52.912;6.940;2023-04-03T07:31:48;11.02;;;2.63;;
57395;SDS011;43222;52.912;6.940;2023-04-03T07:34:15;7.22;;;2.38;;
57395;SDS011;43222;52.912;6.940;2023-04-03T07:36:41;8.45;;;2.30;;
57395;SDS011;43222;52.912;6.940;2023-04-03T07:39:07;7.78;;;2.20;;
57395;SDS011;43222;52.912;6.940;2023-04-03T07:41:33;8.95;;;2.03;;
57395;SDS011;43222;52.912;6.940;2023-04-03T07:43:59;7.93;;;2.42;;
57395;SDS011;43222;52.912;6.940;2023-04-03T07:46:25;8.43;;;2.25;;
57395;SDS011;43222;52.912;6.940;2023-04-03T07:48:51;7.10;;;1.92;;
57395;SDS011;43222;52.912;6.940;2023-04-03T07:51:18;9.32;;;2.13;;
57395;SDS011;43222;52.912;6.940;2023-04-03T07:53:44;8.25;;;2.15;;
57395;SDS011;43222;52.912;6.940;2023-04-03T07:56:11;6.05;;;1.80;;
57395;SDS011;43222;52.912;6.940;2023-04-03T07:58:37;8.43;;;2.28;;
57395;SDS011;43222;52.912;6.940;2023-04-03T08:01:03;8.32;;;1.88;;
57395;SDS011;43222;52.912;6.940;2023-04-03T08:03:29;9.20;;;2.45;;
57395;SDS011;43222;52.912;6.940;2023-04-03T08:06:00;8.18;;;2.20;;
57395;SDS011;43222;52.912;6.940;2023-04-03T08:08:27;7.20;;;2.08;;
57395;SDS011;43222;52.912;6.940;2023-04-03T08:10:54;6.80;;;1.98;;
57395;SDS011;43222;52.912;6.940;2023-04-03T08:13:21;5.97;;;1.60;;
57395;SDS011;43222;52.912;6.940;2023-04-03T08:15:47;7.45;;;1.95;;
57395;SDS011;43222;52.912;6.940;2023-04-03T08:18:14;6.38;;;1.67;;
57395;SDS011;43222;52.912;6.940;2023-04-03T08:20:40;7.57;;;2.10;;
57395;SDS011;43222;52.912;6.940;2023-04-03T08:23:07;7.63;;;1.60;;
57395;SDS011;43222;52.912;6.940;2023-04-03T08:25:34;8.18;;;1.90;;
57395;SDS011;43222;52.912;6.940;2023-04-03T08:28:01;6.32;;;1.63;;
57395;SDS011;43222;52.912;6.940;2023-04-03T08:30:27;6.40;;;1.40;;
57395;SDS011;43222;52.912;6.940;2023-04-03T08:32:53;5.85;;;1.67;;
57395;SDS011;43222;52.912;6.940;2023-04-03T08:35:19;6.97;;;1.50;;
57395;SDS011;43222;52.912;6.940;2023-04-03T08:37:46;6.68;;;1.50;;
57395;SDS011;43222;52.912;6.940;2023-04-03T08:40:15;5.20;;;1.63;;
57395;SDS011;43222;52.912;6.940;2023-04-03T08:42:53;5.75;;;1.30;;
57395;SDS011;43222;52.912;6.940;2023-04-03T08:45:27;5.53;;;1.45;;
57395;SDS011;43222;52.912;6.940;2023-04-03T08:50:25;7.18;;;1.48;;
57395;SDS011;43222;52.912;6.940;2023-04-03T08:52:56;5.47;;;1.60;;
57395;SDS011;43222;52.912;6.940;2023-04-03T08:55:27;5.07;;;1.50;;
57395;SDS011;43222;52.912;6.940;2023-04-03T08:58:01;4.17;;;1.20;;
57395;SDS011;43222;52.912;6.940;2023-04-03T09:00:41;6.57;;;1.17;;
57395;SDS011;43222;52.912;6.940;2023-04-03T09:03:14;6.22;;;1.40;;
57395;SDS011;43222;52.912;6.940;2023-04-03T09:05:42;4.85;;;1.50;;
57395;SDS011;43222;52.912;6.940;2023-04-03T09:08:24;6.70;;;1.42;;
57395;SDS011;43222;52.912;6.940;2023-04-03T09:10:52;6.72;;;1.27;;
57395;SDS011;43222;52.912;6.940;2023-04-03T09:13:26;6.45;;;1.35;;
57395;SDS011;43222;52.912;6.940;2023-04-03T09:15:55;4.70;;;1.20;;
57395;SDS011;43222;52.912;6.940;2023-04-03T09:18:32;5.25;;;1.40;;
57395;SDS011;43222;52.912;6.940;2023-04-03T09:21:08;6.20;;;1.20;;
57395;SDS011;43222;52.912;6.940;2023-04-03T09:23:48;5.10;;;1.20;;
57395;SDS011;43222;52.912;6.940;2023-04-03T09:28:54;5.63;;;1.20;;
57395;SDS011;43222;52.912;6.940;2023-04-03T09:31:22;3.97;;;1.08;;
57395;SDS011;43222;52.912;6.940;2023-04-03T09:33:50;5.97;;;1.40;;
57395;SDS011;43222;52.912;6.940;2023-04-03T09:39:26;5.15;;;1.17;;
57395;SDS011;43222;52.912;6.940;2023-04-03T09:44:22;3.38;;;1.10;;
57395;SDS011;43222;52.912;6.940;2023-04-03T09:46:49;5.55;;;1.25;;
57395;SDS011;43222;52.912;6.940;2023-04-03T09:49:16;7.05;;;1.30;;
57395;SDS011;43222;52.912;6.940;2023-04-03T09:51:42;4.43;;;1.00;;
57395;SDS011;43222;52.912;6.940;2023-04-03T09:54:30;6.25;;;1.42;;
57395;SDS011;43222;52.912;6.940;2023-04-03T09:56:56;4.88;;;1.13;;
57395;SDS011;43222;52.912;6.940;2023-04-03T09:59:24;5.07;;;1.00;;
57395;SDS011;43222;52.912;6.940;2023-04-03T10:01:59;4.35;;;1.15;;
57395;SDS011;43222;52.912;6.940;2023-04-03T10:04:25;4.57;;;1.58;;
57395;SDS011;43222;52.912;6.940;2023-04-03T10:06:52;5.10;;;1.40;;
57395;SDS011;43222;52.912;6.940;2023-04-03T10:09:25;3.70;;;0.93;;
57395;SDS011;43222;52.912;6.940;2023-04-03T10:12:05;4.15;;;1.00;;
57395;SDS011;43222;52.912;6.940;2023-04-03T10:14:39;5.85;;;1.10;;
57395;SDS011;43222;52.912;6.940;2023-04-03T10:17:14;4.47;;;1.17;;
57395;SDS011;43222;52.912;6.940;2023-04-03T10:19:46;7.65;;;1.33;;
57395;SDS011;43222;52.912;6.940;2023-04-03T10:22:23;5.05;;;1.10;;
57395;SDS011;43222;52.912;6.940;2023-04-03T10:25:15;4.43;;;1.23;;
57395;SDS011;43222;52.912;6.940;2023-04-03T10:27:58;4.38;;;1.08;;
57395;SDS011;43222;52.912;6.940;2023-04-03T10:33:05;6.32;;;1.55;;
57395;SDS011;43222;52.912;6.940;2023-04-03T10:38:10;4.55;;;1.05;;
57395;SDS011;43222;52.912;6.940;2023-04-03T10:43:15;4.05;;;1.13;;
57395;SDS011;43222;52.912;6.940;2023-04-03T10:48:15;4.18;;;1.17;;
57395;SDS011;43222;52.912;6.940;2023-04-03T10:56:15;5.88;;;1.35;;
57395;SDS011;43222;52.912;6.940;2023-04-03T10:58:43;5.18;;;1.17;;
57395;SDS011;43222;52.912;6.940;2023-04-03T11:01:20;4.47;;;1.17;;
57395;SDS011;43222;52.912;6.940;2023-04-03T11:03:53;5.43;;;1.48;;
57395;SDS011;43222;52.912;6.940;2023-04-03T11:06:21;5.50;;;1.65;;
57395;SDS011;43222;52.912;6.940;2023-04-03T11:09:09;5.45;;;1.05;;
57395;SDS011;43222;52.912;6.940;2023-04-03T11:11:39;5.68;;;1.30;;
57395;SDS011;43222;52.912;6.940;2023-04-03T11:14:10;4.90;;;1.40;;
57395;SDS011;43222;52.912;6.940;2023-04-03T11:16:42;6.13;;;2.03;;
57395;SDS011;43222;52.912;6.940;2023-04-03T11:21:42;6.40;;;1.30;;
57395;SDS011;43222;52.912;6.940;2023-04-03T11:24:17;6.38;;;1.20;;
57395;SDS011;43222;52.912;6.940;2023-04-03T11:26:46;4.72;;;1.25;;
57395;SDS011;43222;52.912;6.940;2023-04-03T11:29:14;4.70;;;1.10;;
57395;SDS011;43222;52.912;6.940;2023-04-03T11:36:59;5.32;;;1.42;;
57395;SDS011;43222;52.912;6.940;2023-04-03T11:39:28;4.43;;;1.23;;
57395;SDS011;43222;52.912;6.940;2023-04-03T11:41:55;11.63;;;2.95;;
57395;SDS011;43222;52.912;6.940;2023-04-03T11:44:38;4.72;;;1.27;;
57395;SDS011;43222;52.912;6.940;2023-04-03T11:47:06;4.43;;;1.20;;
57395;SDS011;43222;52.912;6.940;2023-04-03T11:55:09;3.88;;;1.13;;
57395;SDS011;43222;52.912;6.940;2023-04-03T12:16:30;3.78;;;1.40;;
57395;SDS011;43222;52.912;6.940;2023-04-03T12:19:02;5.20;;;1.45;;
57395;SDS011;43222;52.912;6.940;2023-04-03T12:26:32;5.60;;;1.40;;
57395;SDS011;43222;52.912;6.940;2023-04-03T12:29:01;6.18;;;1.52;;
57395;SDS011;43222;52.912;6.940;2023-04-03T12:31:32;5.60;;;1.40;;
57395;SDS011;43222;52.912;6.940;2023-04-03T12:39:12;5.65;;;1.30;;
57395;SDS011;43222;52.912;6.940;2023-04-03T12:41:53;4.03;;;1.17;;
57395;SDS011;43222;52.912;6.940;2023-04-03T12:46:53;5.35;;;1.10;;
57395;SDS011;43222;52.912;6.940;2023-04-03T12:51:55;5.78;;;1.52;;
57395;SDS011;43222;52.912;6.940;2023-04-03T12:54:26;4.32;;;1.20;;
57395;SDS011;43222;52.912;6.940;2023-04-03T12:59:40;4.75;;;1.45;;
57395;SDS011;43222;52.912;6.940;2023-04-03T13:04:46;5.85;;;1.27;;
57395;SDS011;43222;52.912;6.940;2023-04-03T13:07:21;6.28;;;1.30;;
57395;SDS011;43222;52.912;6.940;2023-04-03T13:10:01;4.57;;;1.20;;
57395;SDS011;43222;52.912;6.940;2023-04-03T13:12:28;5.88;;;1.52;;
57395;SDS011;43222;52.912;6.940;2023-04-03T13:14:56;5.57;;;1.63;;
57395;SDS011;43222;52.912;6.940;2023-04-03T13:17:23;4.28;;;1.30;;
57395;SDS011;43222;52.912;6.940;2023-04-03T13:19:49;5.43;;;1.35;;
57395;SDS011;43222;52.912;6.940;2023-04-03T13:24:55;5.82;;;1.67;;
57395;SDS011;43222;52.912;6.940;2023-04-03T13:27:22;5.80;;;1.77;;
57395;SDS011;43222;52.912;6.940;2023-04-03T13:29:50;5.13;;;1.48;;
57395;SDS011;43222;52.912;6.940;2023-04-03T13:32:20;4.85;;;1.70;;
57395;SDS011;43222;52.912;6.940;2023-04-03T13:34:47;4.07;;;1.30;;
57395;SDS011;43222;52.912;6.940;2023-04-03T13:37:27;4.78;;;1.33;;
57395;SDS011;43222;52.912;6.940;2023-04-03T13:42:28;8.45;;;1.70;;
57395;SDS011;43222;52.912;6.940;2023-04-03T13:47:40;8.00;;;1.63;;
57395;SDS011;43222;52.912;6.940;2023-04-03T13:52:41;4.93;;;1.40;;
57395;SDS011;43222;52.912;6.940;2023-04-03T13:55:18;5.85;;;1.63;;
57395;SDS011;43222;52.912;6.940;2023-04-03T13:58:29;5.15;;;1.63;;
57395;SDS011;43222;52.912;6.940;2023-04-03T14:00:38;3.83;;;1.30;;
57395;SDS011;43222;52.912;6.940;2023-04-03T14:03:18;4.55;;;1.48;;
57395;SDS011;43222;52.912;6.940;2023-04-03T14:05:46;8.10;;;1.80;;
57395;SDS011;43222;52.912;6.940;2023-04-03T14:08:12;4.97;;;1.75;;
57395;SDS011;43222;52.912;6.940;2023-04-03T14:10:38;6.88;;;1.70;;
57395;SDS011;43222;52.912;6.940;2023-04-03T14:13:05;5.55;;;1.50;;
57395;SDS011;43222;52.912;6.940;2023-04-03T14:15:31;5.93;;;1.23;;
57395;SDS011;43222;52.912;6.940;2023-04-03T14:17:57;7.20;;;1.83;;
57395;SDS011;43222;52.912;6.940;2023-04-03T14:20:26;3.22;;;1.10;;
57395;SDS011;43222;52.912;6.940;2023-04-03T14:22:52;4.40;;;1.27;;
57395;SDS011;43222;52.912;6.940;2023-04-03T14:25:19;6.20;;;1.50;;
57395;SDS011;43222;52.912;6.940;2023-04-03T14:27:47;5.57;;;1.65;;
57395;SDS011;43222;52.912;6.940;2023-04-03T14:33:10;4.75;;;1.27;;
57395;SDS011;43222;52.912;6.940;2023-04-03T14:35:38;4.57;;;1.20;;
57395;SDS011;43222;52.912;6.940;2023-04-03T14:38:05;6.38;;;1.73;;
57395;SDS011;43222;52.912;6.940;2023-04-03T14:40:37;4.82;;;1.30;;
57395;SDS011;43222;52.912;6.940;2023-04-03T14:43:03;4.75;;;1.73;;
57395;SDS011;43222;52.912;6.940;2023-04-03T14:45:29;5.53;;;1.40;;
57395;SDS011;43222;52.912;6.940;2023-04-03T14:47:55;4.93;;;1.40;;
57395;SDS011;43222;52.912;6.940;2023-04-03T14:50:23;4.53;;;1.40;;
57395;SDS011;43222;52.912;6.940;2023-04-03T14:52:50;7.05;;;1.80;;
57395;SDS011;43222;52.912;6.940;2023-04-03T14:55:18;4.60;;;1.50;;
57395;SDS011;43222;52.912;6.940;2023-04-03T14:57:44;7.38;;;1.73;;
57395;SDS011;43222;52.912;6.940;2023-04-03T15:00:12;4.55;;;1.30;;
57395;SDS011;43222;52.912;6.940;2023-04-03T15:02:39;4.97;;;1.63;;
57395;SDS011;43222;52.912;6.940;2023-04-03T15:05:07;5.43;;;1.50;;
57395;SDS011;43222;52.912;6.940;2023-04-03T15:07:35;3.75;;;1.17;;
57395;SDS011;43222;52.912;6.940;2023-04-03T15:10:03;4.65;;;1.40;;
57395;SDS011;43222;52.912;6.940;2023-04-03T15:12:32;6.40;;;1.70;;
57395;SDS011;43222;52.912;6.940;2023-04-03T15:14:58;7.00;;;1.70;;
57395;SDS011;43222;52.912;6.940;2023-04-03T15:17:24;6.05;;;1.58;;
57395;SDS011;43222;52.912;6.940;2023-04-03T15:19:50;6.63;;;1.90;;
57395;SDS011;43222;52.912;6.940;2023-04-03T15:22:18;5.65;;;1.55;;
57395;SDS011;43222;52.912;6.940;2023-04-03T15:24:44;4.72;;;1.50;;
57395;SDS011;43222;52.912;6.940;2023-04-03T15:27:10;4.90;;;1.40;;
57395;SDS011;43222;52.912;6.940;2023-04-03T15:29:38;4.60;;;1.50;;
57395;SDS011;43222;52.912;6.940;2023-04-03T15:32:04;6.07;;;1.20;;
57395;SDS011;43222;52.912;6.940;2023-04-03T15:34:31;5.63;;;1.50;;
57395;SDS011;43222;52.912;6.940;2023-04-03T15:36:57;5.75;;;1.50;;
57395;SDS011;43222;52.912;6.940;2023-04-03T15:39:24;4.68;;;1.73;;
57395;SDS011;43222;52.912;6.940;2023-04-03T15:41:50;7.95;;;1.42;;
57395;SDS011;43222;52.912;6.940;2023-04-03T15:44:17;4.57;;;1.30;;
57395;SDS011;43222;52.912;6.940;2023-04-03T15:46:47;5.70;;;1.38;;
57395;SDS011;43222;52.912;6.940;2023-04-03T15:49:14;3.85;;;1.00;;
57395;SDS011;43222;52.912;6.940;2023-04-03T15:51:40;4.60;;;1.60;;
57395;SDS011;43222;52.912;6.940;2023-04-03T15:54:06;7.07;;;1.60;;
57395;SDS011;43222;52.912;6.940;2023-04-03T15:56:33;3.53;;;1.15;;
57395;SDS011;43222;52.912;6.940;2023-04-03T15:58:59;5.18;;;1.40;;
57395;SDS011;43222;52.912;6.940;2023-04-03T16:01:25;3.47;;;1.30;;
57395;SDS011;43222;52.912;6.940;2023-04-03T16:03:51;3.33;;;1.20;;
57395;SDS011;43222;52.912;6.940;2023-04-03T16:06:17;5.68;;;1.40;;
57395;SDS011;43222;52.912;6.940;2023-04-03T16:08:44;5.45;;;1.67;;
57395;SDS011;43222;52.912;6.940;2023-04-03T16:11:10;5.10;;;1.20;;
57395;SDS011;43222;52.912;6.940;2023-04-03T16:13:36;4.45;;;1.40;;
57395;SDS011;43222;52.912;6.940;2023-04-03T16:16:02;4.47;;;1.27;;
57395;SDS011;43222;52.912;6.940;2023-04-03T16:18:30;7.43;;;2.80;;
57395;SDS011;43222;52.912;6.940;2023-04-03T16:20:56;4.78;;;1.48;;
57395;SDS011;43222;52.912;6.940;2023-04-03T16:23:23;6.47;;;2.45;;
57395;SDS011;43222;52.912;6.940;2023-04-03T16:25:49;5.28;;;1.77;;
57395;SDS011;43222;52.912;6.940;2023-04-03T16:28:16;6.60;;;1.50;;